Time;durP1;ratioP1;P1;durP2;ratioP2;P2;SDS_P1;SDS_P2;PMS_P1;PMS_P2;Temp;Humidity;BMP_temperature;BMP_pressure;BME280_temperature;BME280_humidity;BME280_pressure;Samples;Min_cycle;Max_cycle;Signal;HPM_P1;HPM_P2
2023/12/23 00:02:08;;;;;;;0.98;0.98;;;10.20;82.30;;;;;;5030998;28;20036;-80
2023/12/23 00:04:36;;;;;;;1.40;1.10;;;10.20;81.70;;;;;;5013659;28;20036;-80
2023/12/23 00:07:02;;;;;;;2.25;1.40;;;10.20;81.70;;;;;;5037499;28;20071;-80
2023/12/23 00:09:28;;;;;;;1.52;1.20;;;10.10;81.70;;;;;;5027808;28;20049;-79
2023/12/23 00:11:54;;;;;;;1.85;1.20;;;10.10;81.60;;;;;;5031249;28;20040;-80
2023/12/23 00:14:20;;;;;;;1.15;1.05;;;10.10;81.60;;;;;;5025635;28;20040;-80
2023/12/23 00:16:46;;;;;;;2.72;1.10;;;10.10;81.60;;;;;;5027485;28;20041;-80
2023/12/23 00:19:11;;;;;;;1.25;1.15;;;10.10;81.60;;;;;;5013793;28;20033;-80
2023/12/23 00:21:37;;;;;;;1.95;1.25;;;10.10;81.60;;;;;;5003046;28;20064;-79
2023/12/23 00:24:03;;;;;;;1.17;1.08;;;10.10;81.70;;;;;;4995395;28;20130;-80
2023/12/23 00:26:30;;;;;;;1.95;1.20;;;10.10;81.60;;;;;;5013277;28;20051;-80
2023/12/23 00:28:55;;;;;;;2.03;1.00;;;10.10;81.60;;;;;;5016662;28;20082;-80
2023/12/23 00:31:21;;;;;;;1.35;1.00;;;10.10;81.70;;;;;;5020064;28;20415;-79
2023/12/23 00:33:49;;;;;;;1.67;1.10;;;10.10;81.70;;;;;;5033517;28;20737;-79
2023/12/23 00:36:15;;;;;;;1.33;1.05;;;10.10;81.70;;;;;;5028481;28;20041;-79
2023/12/23 00:38:41;;;;;;;1.85;1.10;;;10.10;81.70;;;;;;5008650;28;20032;-79
2023/12/23 00:41:07;;;;;;;1.40;1.25;;;10.10;81.70;;;;;;5035268;28;20053;-79
2023/12/23 00:43:33;;;;;;;1.10;1.00;;;10.00;81.70;;;;;;5029430;28;20038;-79
2023/12/23 00:45:58;;;;;;;1.27;1.17;;;10.10;81.70;;;;;;5028632;28;20083;-80
2023/12/23 00:48:26;;;;;;;1.38;1.05;;;10.10;81.70;;;;;;5007009;28;20116;-80
2023/12/23 00:50:51;;;;;;;1.73;1.30;;;10.10;81.80;;;;;;5021760;28;20115;-79
2023/12/23 00:53:17;;;;;;;1.10;1.00;;;10.00;81.80;;;;;;4997239;28;20029;-79
2023/12/23 00:55:43;;;;;;;1.15;1.10;;;10.00;81.80;;;;;;5012287;28;20504;-80
2023/12/23 00:58:09;;;;;;;0.95;0.95;;;10.00;81.80;;;;;;5045012;28;20060;-79
2023/12/23 01:00:35;;;;;;;1.25;1.15;;;10.00;81.80;;;;;;5021065;28;20124;-79
2023/12/23 01:03:01;;;;;;;1.20;1.10;;;10.10;81.90;;;;;;5006049;28;20102;-79
2023/12/23 01:05:26;;;;;;;1.17;1.10;;;10.00;81.80;;;;;;4995441;28;20029;-80
2023/12/23 01:07:52;;;;;;;0.93;0.93;;;10.00;81.80;;;;;;5024493;28;20052;-79
2023/12/23 01:10:21;;;;;;;1.35;1.10;;;10.00;81.80;;;;;;5026601;28;20029;-80
2023/12/23 01:12:47;;;;;;;1.08;1.00;;;10.00;81.80;;;;;;5027412;28;20086;-79
2023/12/23 01:15:13;;;;;;;2.35;1.33;;;10.00;81.80;;;;;;5017474;28;20433;-80
2023/12/23 01:17:39;;;;;;;1.92;1.17;;;10.00;81.80;;;;;;5020245;28;20022;-79
2023/12/23 01:20:05;;;;;;;1.15;1.00;;;10.00;81.80;;;;;;5024946;28;20032;-79
2023/12/23 01:22:33;;;;;;;1.45;1.05;;;10.00;81.80;;;;;;5011214;28;20025;-79
2023/12/23 01:24:58;;;;;;;1.30;1.00;;;10.00;81.80;;;;;;5033630;28;20037;-79
2023/12/23 01:27:24;;;;;;;1.95;1.25;;;10.00;81.80;;;;;;5028155;28;20031;-80
2023/12/23 01:29:50;;;;;;;2.17;1.30;;;10.00;81.80;;;;;;5002748;28;20079;-79
2023/12/23 01:32:16;;;;;;;1.38;1.20;;;10.00;81.80;;;;;;5039329;28;20072;-81
2023/12/23 01:34:42;;;;;;;1.00;1.00;;;10.00;81.80;;;;;;5027993;28;20562;-80
2023/12/23 01:37:08;;;;;;;1.75;1.20;;;10.00;81.80;;;;;;5028287;28;20034;-79
2023/12/23 01:39:34;;;;;;;1.20;1.10;;;10.00;81.80;;;;;;5006612;28;20052;-80
2023/12/23 01:41:59;;;;;;;1.33;0.98;;;10.00;81.80;;;;;;5010180;28;20127;-80
2023/12/23 01:44:25;;;;;;;1.70;1.10;;;10.00;81.80;;;;;;5018120;28;20037;-79
2023/12/23 01:46:53;;;;;;;1.00;1.00;;;10.00;81.80;;;;;;5005493;28;20040;-80
2023/12/23 01:49:22;;;;;;;1.15;1.05;;;10.00;81.80;;;;;;5001666;28;20025;-79
2023/12/23 01:51:49;;;;;;;1.33;1.02;;;10.00;81.80;;;;;;5028230;28;20055;-79
2023/12/23 01:54:15;;;;;;;1.48;1.10;;;10.00;81.80;;;;;;5024988;28;20120;-79
2023/12/23 01:56:42;;;;;;;1.20;1.10;;;10.00;81.90;;;;;;5026073;28;20483;-80
2023/12/23 01:59:07;;;;;;;1.77;1.20;;;10.00;81.80;;;;;;5014766;28;20030;-80
2023/12/23 02:01:35;;;;;;;1.20;1.10;;;10.00;81.90;;;;;;5030562;28;20091;-80
2023/12/23 02:04:01;;;;;;;1.10;1.00;;;10.00;81.80;;;;;;5034149;28;20033;-79
2023/12/23 02:06:26;;;;;;;2.00;1.17;;;10.00;81.80;;;;;;5020590;28;20079;-79
2023/12/23 02:08:52;;;;;;;1.40;1.00;;;10.00;81.90;;;;;;5011508;28;20176;-79
2023/12/23 02:11:42;;;;;;;1.00;0.90;;;10.00;81.90;;;;;;5025179;28;20075;-80
2023/12/23 02:14:38;;;;;;;1.13;1.00;;;10.00;82.00;;;;;;5043461;28;20036;-80
2023/12/23 02:17:04;;;;;;;1.73;1.10;;;10.00;81.90;;;;;;5026439;28;20040;-79
2023/12/23 02:19:30;;;;;;;1.20;1.10;;;10.00;81.90;;;;;;5006241;28;20424;-79
2023/12/23 02:21:55;;;;;;;1.48;1.20;;;9.90;81.90;;;;;;5043607;28;20091;-80
2023/12/23 02:24:21;;;;;;;1.15;1.05;;;9.90;81.90;;;;;;5003425;28;20075;-80
2023/12/23 02:27:03;;;;;;;1.10;1.02;;;10.00;81.90;;;;;;5001396;28;20466;-80
2023/12/23 02:29:29;;;;;;;1.13;1.00;;;10.00;81.90;;;;;;5040925;28;20017;-80
2023/12/23 02:31:56;;;;;;;1.73;1.02;;;10.00;81.90;;;;;;5042220;28;20120;-79
2023/12/23 02:34:22;;;;;;;1.20;1.10;;;10.00;81.90;;;;;;5020155;28;20029;-80
2023/12/23 02:36:48;;;;;;;1.45;1.13;;;10.00;81.90;;;;;;5022857;28;20392;-79
2023/12/23 02:39:15;;;;;;;1.10;1.00;;;10.00;82.00;;;;;;5016842;28;20060;-80
2023/12/23 02:41:41;;;;;;;1.48;1.10;;;10.00;82.00;;;;;;5005218;28;20108;-80
2023/12/23 02:44:06;;;;;;;1.00;1.00;;;10.00;81.90;;;;;;5025690;28;21269;-79
2023/12/23 02:46:32;;;;;;;1.00;0.95;;;10.00;82.00;;;;;;4993293;28;20366;-79
2023/12/23 02:48:59;;;;;;;2.60;1.30;;;10.00;81.90;;;;;;5029183;28;20053;-79
2023/12/23 02:51:25;;;;;;;1.08;1.08;;;10.00;82.20;;;;;;4989657;28;20044;-79
2023/12/23 02:53:51;;;;;;;1.48;0.98;;;10.00;81.90;;;;;;5030642;28;20036;-79
2023/12/23 02:56:17;;;;;;;1.08;0.93;;;10.00;82.00;;;;;;5021781;28;20102;-80
2023/12/23 02:58:43;;;;;;;3.00;1.30;;;10.00;81.90;;;;;;5018429;28;20124;-79
2023/12/23 03:01:08;;;;;;;1.38;1.10;;;10.00;82.00;;;;;;5008528;28;20040;-79
2023/12/23 03:03:36;;;;;;;2.78;1.17;;;10.00;82.00;;;;;;5034621;28;20032;-79
2023/12/23 03:06:02;;;;;;;1.00;1.00;;;10.00;82.00;;;;;;5022503;28;20033;-80
2023/12/23 03:08:29;;;;;;;1.30;1.20;;;10.00;82.60;;;;;;5027346;28;20032;-79
2023/12/23 03:10:55;;;;;;;1.20;1.10;;;10.00;82.00;;;;;;5042680;28;20409;-79
2023/12/23 03:13:20;;;;;;;1.33;1.20;;;10.00;82.60;;;;;;5009112;28;20393;-79
2023/12/23 03:15:46;;;;;;;1.90;1.20;;;10.10;82.00;;;;;;5008465;28;20407;-78
2023/12/23 03:18:12;;;;;;;1.48;1.00;;;10.00;81.90;;;;;;5014519;28;20032;-79
2023/12/23 03:20:38;;;;;;;1.20;1.08;;;10.00;81.90;;;;;;5002990;28;20029;-79
2023/12/23 03:23:04;;;;;;;1.92;1.10;;;10.00;81.90;;;;;;5024897;28;20033;-79
2023/12/23 03:25:30;;;;;;;1.30;1.20;;;10.00;81.90;;;;;;5043649;28;20033;-79
2023/12/23 03:27:55;;;;;;;4.82;1.60;;;10.00;81.90;;;;;;5042587;28;20033;-80
2023/12/23 03:30:21;;;;;;;1.52;1.38;;;10.00;82.00;;;;;;5011634;28;20037;-79
2023/12/23 03:32:47;;;;;;;1.30;1.20;;;10.00;82.00;;;;;;5028748;28;20108;-78
2023/12/23 03:35:13;;;;;;;1.52;1.30;;;10.10;82.10;;;;;;4988930;28;20045;-79
2023/12/23 03:37:39;;;;;;;2.20;1.52;;;10.10;82.10;;;;;;5012807;28;20611;-79
2023/12/23 03:40:07;;;;;;;1.50;1.40;;;10.10;82.10;;;;;;5008273;28;20029;-79
2023/12/23 03:42:32;;;;;;;1.83;1.40;;;10.10;82.10;;;;;;5029854;28;20064;-79
2023/12/23 03:44:58;;;;;;;2.33;1.52;;;10.10;82.10;;;;;;5030646;28;20029;-79
2023/12/23 03:47:24;;;;;;;1.65;1.40;;;10.10;82.10;;;;;;5031773;28;20532;-79
2023/12/23 03:49:50;;;;;;;3.75;1.60;;;10.10;82.10;;;;;;5022027;28;20033;-78
2023/12/23 03:52:16;;;;;;;2.47;1.73;;;10.10;82.10;;;;;;5027007;28;20037;-79
2023/12/23 03:54:42;;;;;;;1.85;1.50;;;10.10;82.10;;;;;;5013545;28;20032;-79
2023/12/23 03:57:07;;;;;;;2.97;1.45;;;10.10;82.10;;;;;;5038509;28;20025;-79
2023/12/23 03:59:33;;;;;;;1.92;1.42;;;10.10;82.10;;;;;;5021868;28;20063;-79
2023/12/23 04:01:59;;;;;;;1.88;1.40;;;10.20;82.20;;;;;;5019648;28;20040;-79
2023/12/23 04:04:25;;;;;;;3.03;1.80;;;10.20;82.10;;;;;;5005406;28;20053;-79
2023/12/23 04:06:50;;;;;;;3.42;2.15;;;10.20;82.10;;;;;;5042115;28;20041;-79
2023/12/23 04:09:17;;;;;;;3.05;1.50;;;10.20;82.10;;;;;;5023279;28;20485;-79
2023/12/23 04:11:43;;;;;;;1.65;1.40;;;10.20;82.10;;;;;;5027856;28;20033;-79
2023/12/23 04:14:09;;;;;;;2.25;1.48;;;10.20;82.10;;;;;;5005762;28;20071;-79
2023/12/23 04:16:38;;;;;;;2.50;1.50;;;10.30;82.10;;;;;;5030763;28;20033;-79
2023/12/23 04:19:04;;;;;;;2.38;1.55;;;10.30;82.10;;;;;;5030656;28;20057;-79
2023/12/23 04:21:30;;;;;;;1.65;1.50;;;10.30;82.10;;;;;;5033437;28;20052;-79
2023/12/23 04:23:58;;;;;;;2.60;1.38;;;10.30;82.00;;;;;;5014194;28;20032;-79
2023/12/23 04:26:25;;;;;;;1.38;1.20;;;10.30;82.00;;;;;;5010815;28;20121;-79
2023/12/23 04:28:50;;;;;;;3.10;1.70;;;10.30;82.00;;;;;;5039961;28;20044;-78
2023/12/23 04:31:16;;;;;;;2.78;1.50;;;10.40;82.00;;;;;;5013664;28;20033;-79
2023/12/23 04:33:42;;;;;;;3.75;1.45;;;10.40;81.90;;;;;;5008228;28;20032;-80
2023/12/23 04:36:08;;;;;;;1.73;1.30;;;10.40;81.90;;;;;;5009926;28;20702;-79
2023/12/23 04:38:35;;;;;;;2.83;1.73;;;10.40;81.90;;;;;;5012962;28;20543;-79
2023/12/23 04:41:01;;;;;;;2.63;1.40;;;10.40;81.80;;;;;;5020431;28;20043;-79
2023/12/23 04:43:30;;;;;;;3.70;1.42;;;10.50;81.90;;;;;;4987365;28;20107;-79
2023/12/23 04:45:57;;;;;;;2.42;1.40;;;10.50;81.80;;;;;;5001092;28;20025;-80
2023/12/23 04:48:24;;;;;;;2.13;1.20;;;10.50;81.80;;;;;;4996278;28;20038;-79
2023/12/23 04:50:50;;;;;;;3.42;1.50;;;10.50;81.80;;;;;;5010013;28;20182;-79
2023/12/23 04:53:17;;;;;;;1.35;1.10;;;10.50;81.80;;;;;;4996389;28;20486;-79
2023/12/23 04:55:43;;;;;;;2.83;1.30;;;10.50;81.80;;;;;;5010562;28;20075;-80
2023/12/23 04:58:08;;;;;;;1.80;1.40;;;10.50;81.70;;;;;;5004264;28;20379;-79
2023/12/23 05:00:34;;;;;;;3.00;1.30;;;10.60;81.80;;;;;;5011350;28;20037;-79
2023/12/23 05:03:00;;;;;;;3.58;1.85;;;10.60;81.80;;;;;;4990242;28;20034;-80
2023/12/23 05:05:27;;;;;;;2.38;1.52;;;10.60;81.80;;;;;;4995194;28;20528;-79
2023/12/23 05:07:53;;;;;;;3.20;1.30;;;10.60;81.80;;;;;;5009396;28;20030;-79
2023/12/23 05:10:19;;;;;;;1.33;1.20;;;10.60;81.80;;;;;;4989101;28;20431;-79
2023/12/23 05:12:46;;;;;;;2.35;1.42;;;10.60;81.80;;;;;;5009159;28;20121;-78
2023/12/23 05:15:11;;;;;;;2.58;1.60;;;10.60;81.80;;;;;;5004112;28;20056;-80
2023/12/23 05:17:37;;;;;;;2.47;1.30;;;10.70;81.80;;;;;;5020708;28;20033;-78
2023/12/23 05:20:10;;;;;;;2.75;1.30;;;10.70;81.80;;;;;;4993888;28;20510;-79
2023/12/23 05:22:36;;;;;;;2.33;1.40;;;10.70;81.80;;;;;;5005478;28;20552;-79
2023/12/23 05:25:02;;;;;;;2.72;1.27;;;10.70;81.80;;;;;;4993956;28;20037;-79
2023/12/23 05:27:28;;;;;;;1.63;1.20;;;10.70;81.80;;;;;;5006315;28;20030;-79
2023/12/23 05:29:56;;;;;;;2.42;1.48;;;10.70;81.80;;;;;;5004394;28;20462;-78
2023/12/23 05:32:22;;;;;;;1.77;1.33;;;10.70;81.80;;;;;;5005207;28;20522;-79
2023/12/23 05:34:47;;;;;;;1.92;1.20;;;10.70;81.70;;;;;;4970459;28;20129;-79
2023/12/23 05:37:13;;;;;;;2.80;1.40;;;10.80;81.80;;;;;;5005483;28;20057;-79
2023/12/23 05:39:39;;;;;;;3.60;1.60;;;10.80;81.80;;;;;;5004195;28;20029;-79
2023/12/23 05:42:06;;;;;;;3.00;1.35;;;10.80;81.80;;;;;;5032035;28;20497;-79
2023/12/23 05:44:32;;;;;;;2.33;1.30;;;10.80;81.80;;;;;;5047583;28;20088;-80
2023/12/23 05:46:58;;;;;;;1.90;1.23;;;10.80;81.70;;;;;;5029390;28;20036;-79
2023/12/23 05:49:23;;;;;;;4.03;1.38;;;10.80;81.80;;;;;;5022704;28;20087;-80
2023/12/23 05:51:51;;;;;;;2.75;1.35;;;10.80;82.40;;;;;;5042775;28;20429;-79
2023/12/23 05:54:17;;;;;;;2.05;1.25;;;10.80;81.80;;;;;;5026275;28;20053;-79
2023/12/23 05:56:42;;;;;;;1.40;1.20;;;10.90;81.80;;;;;;4994525;28;20508;-80
2023/12/23 05:59:08;;;;;;;2.22;1.40;;;10.90;81.80;;;;;;5011739;28;20061;-80
2023/12/23 06:01:34;;;;;;;3.40;1.58;;;10.90;81.80;;;;;;5030105;28;20072;-79
2023/12/23 06:04:00;;;;;;;3.42;2.00;;;10.90;81.80;;;;;;5028763;28;20400;-79
2023/12/23 06:06:25;;;;;;;4.43;1.50;;;10.90;81.80;;;;;;5012657;28;20533;-79
2023/12/23 06:08:51;;;;;;;1.80;1.52;;;10.90;81.80;;;;;;5022657;28;20021;-80
2023/12/23 06:11:17;;;;;;;1.70;1.23;;;10.90;81.80;;;;;;5023737;28;20112;-79
2023/12/23 06:13:43;;;;;;;3.28;1.50;;;10.90;81.80;;;;;;5011805;28;20465;-80
2023/12/23 06:16:09;;;;;;;2.00;1.33;;;10.90;81.70;;;;;;4996434;28;20040;-79
2023/12/23 06:18:34;;;;;;;2.75;1.48;;;10.90;81.80;;;;;;5029878;28;20397;-80
2023/12/23 06:21:01;;;;;;;1.80;1.40;;;10.90;81.80;;;;;;5008992;28;20024;-79
2023/12/23 06:23:26;;;;;;;1.75;1.15;;;11.00;81.90;;;;;;5006328;28;20048;-79
2023/12/23 06:25:52;;;;;;;3.92;1.40;;;11.00;81.90;;;;;;4983509;28;20025;-79
2023/12/23 06:28:18;;;;;;;2.15;1.35;;;11.00;81.80;;;;;;5022176;28;20033;-79
2023/12/23 06:30:44;;;;;;;2.90;1.40;;;11.00;81.80;;;;;;5032490;28;20036;-79
2023/12/23 06:33:09;;;;;;;2.55;1.50;;;11.00;81.90;;;;;;5017859;28;20448;-80
2023/12/23 06:35:36;;;;;;;3.95;1.42;;;11.00;81.90;;;;;;5010009;28;20025;-80
2023/12/23 06:38:02;;;;;;;2.00;1.20;;;11.00;81.90;;;;;;5029949;28;20021;-79
2023/12/23 06:40:29;;;;;;;2.85;1.65;;;11.00;81.90;;;;;;5008741;28;20025;-79
2023/12/23 06:42:55;;;;;;;1.55;1.40;;;11.00;81.90;;;;;;5028458;28;20052;-79
2023/12/23 06:45:21;;;;;;;4.07;1.40;;;11.10;81.90;;;;;;5031557;28;20087;-80
2023/12/23 06:47:47;;;;;;;1.58;1.20;;;11.10;81.90;;;;;;5042909;28;20025;-79
2023/12/23 06:50:12;;;;;;;2.30;1.40;;;11.10;81.90;;;;;;5018005;28;20025;-80
2023/12/23 06:52:38;;;;;;;1.88;1.20;;;11.00;81.90;;;;;;5030911;28;21921;-79
2023/12/23 06:55:04;;;;;;;3.80;1.35;;;11.10;81.90;;;;;;5026943;28;20125;-79
2023/12/23 06:57:30;;;;;;;3.55;1.67;;;11.10;81.90;;;;;;5046635;28;20371;-80
2023/12/23 06:59:58;;;;;;;1.42;1.27;;;11.10;81.90;;;;;;5031072;28;20592;-79
2023/12/23 07:02:24;;;;;;;1.42;1.20;;;11.10;81.90;;;;;;5034270;28;20033;-80
2023/12/23 07:04:50;;;;;;;2.50;1.40;;;11.10;81.90;;;;;;5009863;28;20071;-80
2023/12/23 07:07:16;;;;;;;2.13;1.20;;;11.10;81.90;;;;;;5040312;28;20469;-79
2023/12/23 07:09:42;;;;;;;2.15;1.50;;;11.10;81.90;;;;;;5017063;28;20033;-80
2023/12/23 07:12:08;;;;;;;2.83;1.38;;;11.10;81.90;;;;;;5014967;28;20092;-79
2023/12/23 07:14:34;;;;;;;2.92;1.42;;;11.10;81.90;;;;;;5033090;28;20550;-78
2023/12/23 07:17:00;;;;;;;2.10;1.30;;;11.10;81.90;;;;;;4988210;28;20066;-80
2023/12/23 07:19:26;;;;;;;3.38;1.33;;;11.20;81.90;;;;;;5041154;28;20029;-79
2023/12/23 07:21:53;;;;;;;2.75;1.55;;;11.10;81.80;;;;;;5032326;28;20535;-80
2023/12/23 07:24:22;;;;;;;2.22;1.40;;;11.10;81.90;;;;;;5011290;28;20063;-79
2023/12/23 07:26:48;;;;;;;3.45;1.35;;;11.20;81.90;;;;;;5039729;28;20037;-79
2023/12/23 07:29:14;;;;;;;2.88;1.30;;;11.10;81.90;;;;;;5044217;28;20033;-80
2023/12/23 07:31:40;;;;;;;4.93;1.70;;;11.20;81.90;;;;;;5008623;28;20183;-79
2023/12/23 07:34:06;;;;;;;1.98;1.35;;;11.20;82.00;;;;;;5014817;28;20025;-79
2023/12/23 07:36:31;;;;;;;2.55;1.40;;;11.20;81.90;;;;;;5043651;28;20038;-79
2023/12/23 07:38:57;;;;;;;2.25;1.40;;;11.20;81.90;;;;;;4992141;28;20171;-80
2023/12/23 07:41:23;;;;;;;2.25;1.20;;;11.20;81.90;;;;;;5043100;28;20056;-79
2023/12/23 07:43:49;;;;;;;2.92;1.27;;;11.20;81.90;;;;;;5043435;28;20036;-79
2023/12/23 07:46:15;;;;;;;2.78;1.30;;;11.20;81.90;;;;;;5026580;28;20025;-80
2023/12/23 07:48:41;;;;;;;2.83;1.40;;;11.20;81.90;;;;;;5012385;28;20040;-80
2023/12/23 07:51:08;;;;;;;2.35;1.40;;;11.20;81.90;;;;;;5043139;28;20363;-79
2023/12/23 07:53:35;;;;;;;2.30;1.42;;;11.20;81.90;;;;;;5015129;28;20036;-80
2023/12/23 07:56:01;;;;;;;2.72;1.65;;;11.20;81.90;;;;;;5043991;28;20017;-80
2023/12/23 07:58:27;;;;;;;2.38;1.33;;;11.30;81.90;;;;;;5045589;28;20509;-79
2023/12/23 08:00:53;;;;;;;3.00;1.50;;;11.30;81.90;;;;;;5015449;28;20052;-79
2023/12/23 08:03:18;;;;;;;1.70;1.30;;;11.30;81.90;;;;;;5029672;28;20041;-80
2023/12/23 08:05:44;;;;;;;2.85;1.40;;;11.30;81.90;;;;;;5028314;28;20389;-79
2023/12/23 08:08:10;;;;;;;1.50;1.13;;;11.30;81.90;;;;;;5042403;28;20052;-79
2023/12/23 08:10:38;;;;;;;3.60;1.50;;;11.30;81.90;;;;;;5004583;28;20141;-80
2023/12/23 08:13:04;;;;;;;2.42;1.52;;;11.30;81.90;;;;;;5035746;28;20025;-79
2023/12/23 08:15:29;;;;;;;1.67;1.40;;;11.30;81.90;;;;;;5045012;28;20044;-79
2023/12/23 08:17:55;;;;;;;2.05;1.58;;;11.30;81.90;;;;;;5013900;28;20025;-80
2023/12/23 08:20:21;;;;;;;2.38;1.50;;;11.30;81.90;;;;;;4991387;28;20036;-79
2023/12/23 08:22:47;;;;;;;2.47;1.40;;;11.30;81.90;;;;;;5019714;28;20068;-79
2023/12/23 08:25:13;;;;;;;3.67;1.58;;;11.30;81.90;;;;;;5031158;28;20033;-79
2023/12/23 08:27:40;;;;;;;3.22;1.60;;;11.30;81.90;;;;;;5037320;28;20061;-79
2023/12/23 08:30:07;;;;;;;2.55;1.23;;;11.30;81.90;;;;;;5043426;28;20139;-80
2023/12/23 08:32:33;;;;;;;2.47;1.33;;;11.40;81.90;;;;;;5030941;28;20044;-80
2023/12/23 08:35:00;;;;;;;1.75;1.20;;;11.40;81.90;;;;;;5026809;28;20116;-79
2023/12/23 08:37:25;;;;;;;1.83;1.25;;;11.30;81.90;;;;;;5065064;28;20029;-79
2023/12/23 08:39:52;;;;;;;2.92;1.80;;;11.40;81.90;;;;;;5030576;28;20029;-79
2023/12/23 08:42:19;;;;;;;3.08;1.30;;;11.40;81.90;;;;;;5046155;28;20040;-80
2023/12/23 08:44:44;;;;;;;3.60;1.60;;;11.40;81.90;;;;;;5034567;28;20111;-79
2023/12/23 08:47:12;;;;;;;4.75;1.40;;;11.40;81.90;;;;;;5043763;28;20550;-79
2023/12/23 08:49:42;;;;;;;2.05;1.42;;;11.40;81.90;;;;;;5026173;28;20033;-78
2023/12/23 08:52:08;;;;;;;2.92;1.33;;;11.40;81.90;;;;;;5020488;28;20367;-79
2023/12/23 08:54:34;;;;;;;2.88;1.45;;;11.40;81.90;;;;;;5025756;28;20030;-79
2023/12/23 08:56:59;;;;;;;5.53;1.85;;;11.40;81.90;;;;;;4999944;28;20375;-79
2023/12/23 08:59:25;;;;;;;1.65;1.20;;;11.40;82.10;;;;;;5032638;28;20033;-78
2023/12/23 09:01:51;;;;;;;2.85;1.40;;;11.40;81.80;;;;;;5021585;28;20033;-79
2023/12/23 09:04:18;;;;;;;1.20;1.10;;;11.40;81.80;;;;;;5024273;28;20056;-79
2023/12/23 09:06:44;;;;;;;1.70;1.17;;;11.50;81.90;;;;;;5014865;28;20132;-79
2023/12/23 09:09:12;;;;;;;3.30;1.30;;;11.50;81.90;;;;;;5010562;28;20040;-78
2023/12/23 09:11:43;;;;;;;1.83;1.10;;;11.50;81.90;;;;;;5027347;28;20033;-79
2023/12/23 09:14:09;;;;;;;1.63;1.40;;;11.50;81.90;;;;;;5040692;28;20032;-79
2023/12/23 09:16:35;;;;;;;3.80;1.40;;;11.50;81.90;;;;;;5011775;28;20543;-79
2023/12/23 09:19:01;;;;;;;2.75;1.40;;;11.50;81.80;;;;;;5017231;28;20028;-79
2023/12/23 09:21:27;;;;;;;1.90;1.20;;;11.50;81.90;;;;;;5015619;28;20051;-79
2023/12/23 09:23:53;;;;;;;2.85;1.25;;;11.50;81.90;;;;;;5005034;28;20076;-79
2023/12/23 09:26:19;;;;;;;2.10;1.25;;;11.50;81.90;;;;;;5018268;28;20030;-79
2023/12/23 09:28:44;;;;;;;2.70;1.38;;;11.50;81.80;;;;;;5010939;28;20386;-79
2023/12/23 09:31:10;;;;;;;2.28;1.20;;;11.50;81.90;;;;;;5029935;28;20033;-79
2023/12/23 09:33:39;;;;;;;3.65;1.48;;;11.50;81.80;;;;;;5028210;28;20069;-79
2023/12/23 09:36:05;;;;;;;2.72;1.20;;;11.50;81.80;;;;;;5021340;28;20055;-79
2023/12/23 09:38:31;;;;;;;2.53;1.63;;;11.60;81.90;;;;;;5026010;28;20043;-80
2023/12/23 09:40:57;;;;;;;3.08;1.20;;;11.50;82.40;;;;;;5009533;28;20248;-78
2023/12/23 09:43:23;;;;;;;1.73;1.20;;;11.60;81.80;;;;;;5039540;28;20124;-78
2023/12/23 09:45:51;;;;;;;1.17;1.00;;;11.60;81.90;;;;;;5023306;28;20078;-80
2023/12/23 09:48:17;;;;;;;2.40;1.15;;;11.50;81.80;;;;;;5032672;28;20116;-79
2023/12/23 09:50:44;;;;;;;1.17;1.10;;;11.60;81.80;;;;;;5027823;28;20033;-79
2023/12/23 09:53:13;;;;;;;2.00;1.30;;;11.60;82.40;;;;;;5040139;28;20099;-80
2023/12/23 09:55:40;;;;;;;1.95;1.25;;;11.60;81.80;;;;;;5048670;28;20048;-78
2023/12/23 09:58:06;;;;;;;1.75;1.25;;;11.60;81.80;;;;;;5019559;28;20033;-77
2023/12/23 10:00:32;;;;;;;2.60;1.33;;;11.60;81.80;;;;;;5030244;28;20067;-79
2023/12/23 10:02:59;;;;;;;2.67;1.40;;;11.60;81.80;;;;;;5028847;28;20032;-79
2023/12/23 10:05:29;;;;;;;1.60;1.25;;;11.60;81.80;;;;;;5023262;28;20025;-78
2023/12/23 10:07:57;;;;;;;1.35;1.10;;;11.60;81.80;;;;;;5027834;28;20048;-79
2023/12/23 10:10:24;;;;;;;2.15;1.30;;;11.60;81.80;;;;;;5034609;28;20478;-80
2023/12/23 10:12:49;;;;;;;2.45;1.20;;;11.70;81.80;;;;;;5025898;28;20025;-79
2023/12/23 10:15:16;;;;;;;2.03;1.30;;;11.70;81.80;;;;;;5036556;28;20040;-79
2023/12/23 10:17:41;;;;;;;2.72;1.50;;;11.70;81.80;;;;;;5010174;28;20029;-81
2023/12/23 10:20:10;;;;;;;4.22;1.35;;;11.60;81.80;;;;;;5048072;28;20461;-84
2023/12/23 10:22:36;;;;;;;1.42;1.30;;;11.70;81.80;;;;;;5039152;28;20041;-80
2023/12/23 10:25:02;;;;;;;2.42;1.20;;;11.70;81.80;;;;;;4998137;28;20620;-80
2023/12/23 10:27:32;;;;;;;3.13;1.27;;;11.70;81.80;;;;;;5027838;28;20032;-80
2023/12/23 10:30:02;;;;;;;4.18;1.48;;;11.70;81.80;;;;;;5030785;28;20021;-80
2023/12/23 10:32:33;;;;;;;1.50;1.17;;;11.70;81.80;;;;;;5045893;28;20037;-80
2023/12/23 10:35:00;;;;;;;1.38;1.27;;;11.70;81.80;;;;;;5038621;28;20065;-80
2023/12/23 10:37:27;;;;;;;1.73;1.15;;;11.70;81.80;;;;;;5046517;28;20025;-80
2023/12/23 10:40:12;;;;;;;2.03;1.30;;;11.70;81.80;;;;;;5031760;28;20025;-80
2023/12/23 10:42:39;;;;;;;2.13;1.30;;;11.70;81.80;;;;;;5048545;28;20049;-79
2023/12/23 10:45:07;;;;;;;1.02;1.00;;;11.70;81.70;;;;;;5035660;28;20370;-80
2023/12/23 10:47:33;;;;;;;2.40;1.20;;;11.70;81.70;;;;;;5051863;28;20131;-80
2023/12/23 10:50:00;;;;;;;1.83;1.30;;;11.80;81.80;;;;;;5026370;28;20025;-80
2023/12/23 10:52:26;;;;;;;1.60;1.30;;;11.70;81.70;;;;;;5006738;28;20052;-79
2023/12/23 10:54:52;;;;;;;2.00;1.27;;;11.70;81.70;;;;;;5026610;28;20018;-81
2023/12/23 10:57:23;;;;;;;1.67;1.10;;;11.70;81.70;;;;;;5031979;28;20406;-80
2023/12/23 10:59:49;;;;;;;2.40;1.20;;;11.70;81.70;;;;;;5041101;28;20029;-80
2023/12/23 11:02:24;;;;;;;3.00;1.40;;;11.80;81.70;;;;;;5033544;28;20035;-79
2023/12/23 11:04:52;;;;;;;1.40;1.20;;;11.80;81.70;;;;;;5034027;28;20021;-80
2023/12/23 11:07:23;;;;;;;1.70;1.30;;;11.80;81.70;;;;;;5012699;28;20090;-80
2023/12/23 11:09:51;;;;;;;2.00;1.20;;;11.80;81.70;;;;;;5034280;28;20400;-79
2023/12/23 11:12:17;;;;;;;1.40;1.13;;;11.80;81.80;;;;;;5034496;28;20052;-80
2023/12/23 11:14:44;;;;;;;1.70;1.33;;;11.80;81.70;;;;;;5035334;28;20116;-81
2023/12/23 11:17:26;;;;;;;3.88;1.45;;;11.80;81.70;;;;;;5048974;28;20087;-80
2023/12/23 11:19:57;;;;;;;2.88;1.33;;;11.80;81.80;;;;;;5010844;28;20443;-81
2023/12/23 11:22:25;;;;;;;2.63;1.20;;;11.80;81.70;;;;;;5031445;28;20407;-80
2023/12/23 11:24:51;;;;;;;2.10;1.10;;;11.80;81.70;;;;;;5027764;28;20119;-79
2023/12/23 11:27:38;;;;;;;2.35;1.27;;;11.80;81.70;;;;;;5029629;28;20037;-81
2023/12/23 11:30:05;;;;;;;2.15;1.25;;;11.90;81.80;;;;;;5031818;28;20056;-80
2023/12/23 11:32:36;;;;;;;2.38;1.38;;;11.90;81.70;;;;;;5015314;28;20327;-80
2023/12/23 11:35:04;;;;;;;1.40;1.30;;;11.90;81.70;;;;;;5017683;28;20029;-80
2023/12/23 11:38:09;;;;;;;2.53;1.23;;;11.80;81.70;;;;;;5031523;28;20052;-80
2023/12/23 11:40:36;;;;;;;2.22;1.30;;;11.90;81.80;;;;;;4992546;28;20441;-79
2023/12/23 11:43:04;;;;;;;1.48;1.15;;;11.90;81.70;;;;;;5006082;28;20072;-80
2023/12/23 11:45:30;;;;;;;1.27;1.02;;;11.90;81.70;;;;;;5029915;28;20108;-81
2023/12/23 11:47:57;;;;;;;2.58;1.27;;;11.90;81.70;;;;;;5031796;28;20354;-80
2023/12/23 11:50:23;;;;;;;2.13;1.20;;;11.90;81.70;;;;;;5024890;28;20033;-81
2023/12/23 11:52:48;;;;;;;5.13;1.27;;;11.90;81.70;;;;;;5039948;28;20528;-81
2023/12/23 11:55:16;;;;;;;1.60;1.00;;;11.90;81.70;;;;;;5045248;28;20064;-79
2023/12/23 11:57:42;;;;;;;2.30;1.30;;;12.00;81.80;;;;;;5040785;28;20575;-80
2023/12/23 12:00:09;;;;;;;2.22;1.30;;;11.90;81.70;;;;;;5024534;28;20027;-79
2023/12/23 12:02:35;;;;;;;2.28;1.10;;;11.90;81.70;;;;;;5028203;28;20025;-79
2023/12/23 12:05:01;;;;;;;1.35;1.17;;;11.90;81.70;;;;;;5049775;28;20428;-78
2023/12/23 12:07:30;;;;;;;1.08;1.00;;;12.00;81.80;;;;;;5033295;28;20484;-79
2023/12/23 12:09:56;;;;;;;0.90;0.90;;;12.00;81.70;;;;;;5042324;28;20288;-79
2023/12/23 12:12:21;;;;;;;2.80;1.08;;;12.00;81.70;;;;;;5033059;28;20025;-80
2023/12/23 12:14:48;;;;;;;3.20;1.50;;;12.00;81.70;;;;;;5032049;28;20457;-81
2023/12/23 12:17:14;;;;;;;1.27;1.08;;;12.00;81.70;;;;;;5047396;28;20036;-80
2023/12/23 12:19:39;;;;;;;1.45;1.02;;;12.00;81.70;;;;;;5021900;28;20026;-79
2023/12/23 12:22:06;;;;;;;1.35;1.05;;;12.00;81.70;;;;;;5024050;28;20384;-79
2023/12/23 12:24:33;;;;;;;3.33;1.20;;;12.00;81.70;;;;;;5021559;28;20044;-80
2023/12/23 12:26:59;;;;;;;1.88;1.15;;;12.10;81.70;;;;;;5027765;28;20020;-79
2023/12/23 12:29:25;;;;;;;1.23;1.02;;;12.00;81.70;;;;;;5029564;28;20486;-79
2023/12/23 12:31:54;;;;;;;1.95;1.15;;;12.00;81.70;;;;;;5009670;28;20037;-79
2023/12/23 12:34:23;;;;;;;2.25;1.10;;;12.10;81.70;;;;;;5045916;28;20032;-79
2023/12/23 12:36:53;;;;;;;2.58;1.27;;;12.10;81.70;;;;;;5034041;28;20112;-79
2023/12/23 12:39:19;;;;;;;1.52;1.17;;;12.10;81.70;;;;;;5032802;28;20438;-80
2023/12/23 12:41:50;;;;;;;1.15;1.05;;;12.10;81.70;;;;;;5024513;28;20037;-80
2023/12/23 12:44:16;;;;;;;1.42;1.10;;;12.10;81.70;;;;;;5050444;28;20045;-79
2023/12/23 12:46:44;;;;;;;1.80;1.10;;;12.10;81.60;;;;;;5026471;28;20071;-79